createdAt,value
2016-11-07T00:00:07.618Z,4.78
2016-11-07T00:01:07.252Z,4.76
2016-11-07T00:02:07.890Z,4.73
2016-11-07T00:03:07.433Z,4.77
2016-11-07T00:04:08.090Z,4.75
2016-11-07T00:05:07.765Z,4.79
2016-11-07T00:06:07.355Z,4.79
2016-11-07T00:07:07.170Z,4.79
2016-11-07T00:08:07.741Z,4.75
2016-11-07T00:09:07.583Z,4.74
2016-11-07T00:10:07.195Z,4.74
2016-11-07T00:11:07.695Z,4.75
2016-11-07T00:12:07.449Z,4.74
2016-11-07T00:13:08.123Z,4.68
2016-11-07T00:14:07.686Z,4.68
2016-11-07T00:15:07.236Z,4.66
2016-11-07T00:16:07.659Z,4.69
2016-11-07T00:17:07.742Z,4.71
2016-11-07T00:18:07.511Z,4.68
2016-11-07T00:19:08.067Z,4.70
2016-11-07T00:20:08.001Z,4.69
2016-11-07T00:21:07.742Z,4.69
2016-11-07T00:22:07.418Z,4.68
2016-11-07T00:23:07.917Z,4.67
2016-11-07T00:24:07.496Z,4.68
2016-11-07T00:25:08.017Z,4.63
2016-11-07T00:26:07.648Z,4.62
2016-11-07T00:27:07.426Z,4.61
2016-11-07T00:28:08.067Z,4.62
2016-11-07T00:29:07.728Z,4.71
2016-11-07T00:30:07.327Z,4.73
2016-11-07T00:31:07.949Z,4.72
2016-11-07T00:32:07.503Z,4.71
2016-11-07T00:33:08.019Z,4.71
2016-11-07T00:34:07.897Z,4.70
2016-11-07T00:35:07.454Z,4.67
2016-11-07T00:36:08.204Z,4.68
2016-11-07T00:37:07.811Z,4.62
2016-11-07T00:38:07.401Z,4.63
2016-11-07T00:39:07.959Z,4.67
2016-11-07T00:40:07.918Z,4.64
2016-11-07T00:41:07.587Z,4.64
2016-11-07T00:42:07.376Z,4.69
2016-11-07T00:43:08.113Z,4.69
2016-11-07T00:44:07.794Z,4.70
2016-11-07T00:45:07.407Z,4.66
2016-11-07T00:46:08.060Z,4.66
2016-11-07T00:47:07.774Z,4.67
2016-11-07T00:48:07.332Z,4.66
2016-11-07T00:49:07.906Z,4.56
2016-11-07T00:50:07.652Z,4.63
2016-11-07T00:51:07.158Z,4.65
2016-11-07T00:52:07.803Z,4.66
2016-11-07T00:53:07.439Z,4.59
2016-11-07T00:54:08.313Z,4.62
2016-11-07T00:55:08.019Z,4.64
2016-11-07T00:56:07.633Z,4.65
2016-11-07T00:57:07.265Z,4.65
2016-11-07T00:58:07.864Z,4.62
2016-11-07T00:59:07.526Z,4.62
2016-11-07T01:00:08.043Z,4.62
2016-11-07T01:01:08.056Z,4.61
2016-11-07T01:02:07.889Z,4.67
2016-11-07T01:03:07.538Z,4.64
2016-11-07T01:04:07.205Z,4.64
2016-11-07T01:05:07.862Z,4.66
2016-11-07T01:06:07.663Z,4.66
2016-11-07T01:07:07.513Z,4.64
2016-11-07T01:08:08.224Z,4.68
2016-11-07T01:09:07.410Z,4.66
2016-11-07T01:10:07.984Z,4.68
2016-11-07T01:11:07.713Z,4.74
2016-11-07T01:12:07.777Z,4.73
2016-11-07T01:13:07.607Z,4.65
2016-11-07T01:14:07.155Z,4.70
2016-11-07T01:15:07.854Z,4.66
2016-11-07T01:16:07.605Z,4.64
2016-11-07T01:17:07.687Z,4.64
2016-11-07T01:18:07.343Z,4.63
2016-11-07T01:19:07.974Z,4.66
2016-11-07T01:20:07.745Z,4.66
2016-11-07T01:21:07.514Z,4.65
2016-11-07T01:22:08.199Z,4.64
2016-11-07T01:23:07.822Z,4.68
2016-11-07T01:24:07.561Z,4.70
2016-11-07T01:25:08.066Z,4.65
2016-11-07T01:26:07.604Z,4.66
2016-11-07T01:27:07.131Z,4.60
2016-11-07T01:28:07.826Z,4.62
2016-11-07T01:29:07.442Z,4.61
2016-11-07T01:30:08.219Z,4.63
2016-11-07T01:31:07.838Z,4.59
2016-11-07T01:32:08.088Z,4.58
2016-11-07T01:33:07.703Z,4.57
2016-11-07T01:34:07.253Z,4.65
2016-11-07T01:35:07.837Z,4.69
2016-11-07T01:36:08.096Z,4.62
2016-11-07T01:37:07.874Z,4.63
2016-11-07T01:38:07.746Z,4.65
2016-11-07T01:39:08.973Z,4.59
2016-11-07T01:40:07.587Z,4.61
2016-11-07T01:41:07.188Z,4.57
2016-11-07T01:42:07.770Z,4.61
2016-11-07T01:43:07.405Z,4.60
2016-11-07T01:44:08.235Z,4.65
2016-11-07T01:45:07.924Z,4.64
2016-11-07T01:46:07.785Z,4.65
2016-11-07T01:47:07.517Z,4.68
2016-11-07T01:48:08.225Z,4.69
2016-11-07T01:49:07.844Z,4.66
2016-11-07T01:50:07.294Z,4.70
2016-11-07T01:51:08.056Z,4.70
2016-11-07T01:52:08.071Z,4.66
2016-11-07T01:53:07.641Z,4.66
2016-11-07T01:54:07.198Z,4.66
2016-11-07T01:55:07.846Z,4.59
2016-11-07T01:56:07.836Z,4.61
2016-11-07T01:57:07.367Z,4.66
2016-11-07T01:58:07.972Z,4.69
2016-11-07T01:59:07.963Z,4.67
2016-11-07T02:00:07.576Z,4.66
2016-11-07T02:01:07.310Z,4.69
2016-11-07T02:02:07.819Z,4.69
2016-11-07T02:03:07.591Z,4.62
2016-11-07T02:04:07.247Z,4.70
2016-11-07T02:05:07.797Z,4.67
2016-11-07T02:06:08.029Z,4.55
2016-11-07T02:07:07.438Z,4.53
2016-11-07T02:08:07.766Z,4.58
2016-11-07T02:09:07.822Z,4.52
2016-11-07T02:10:07.808Z,4.48
2016-11-07T02:11:08.212Z,4.47
2016-11-07T02:12:07.820Z,4.50
2016-11-07T02:13:07.767Z,4.59
2016-11-07T02:14:07.559Z,4.65
2016-11-07T02:15:08.476Z,4.63
2016-11-07T02:16:08.164Z,4.66
2016-11-07T02:17:07.729Z,4.69
2016-11-07T02:18:07.424Z,4.74
2016-11-07T02:19:08.054Z,4.71
2016-11-07T02:20:07.686Z,4.69
2016-11-07T02:21:07.290Z,4.67
2016-11-07T02:22:07.795Z,4.69
2016-11-07T02:23:08.050Z,4.68
2016-11-07T02:24:07.683Z,4.68
2016-11-07T02:25:07.448Z,4.64
2016-11-07T02:26:08.132Z,4.64
2016-11-07T02:27:07.872Z,4.63
2016-11-07T02:28:08.118Z,4.63
2016-11-07T02:29:07.447Z,4.61
2016-11-07T02:30:07.522Z,4.59
2016-11-07T02:31:08.057Z,4.58
2016-11-07T02:32:07.513Z,4.56
2016-11-07T02:33:07.756Z,4.59
2016-11-07T02:34:07.795Z,4.48
2016-11-07T02:35:07.912Z,4.47
2016-11-07T02:36:07.809Z,4.52
2016-11-07T02:37:07.380Z,4.52
2016-11-07T02:38:07.950Z,4.52
2016-11-07T02:39:08.202Z,4.50
2016-11-07T02:40:07.256Z,4.50
2016-11-07T02:41:07.922Z,4.52
2016-11-07T02:42:07.437Z,4.56
2016-11-07T02:43:07.920Z,4.58
2016-11-07T02:44:07.879Z,4.54
2016-11-07T02:45:07.675Z,4.54
2016-11-07T02:46:07.360Z,4.60
2016-11-07T02:47:07.992Z,4.58
2016-11-07T02:48:08.333Z,4.54
2016-11-07T02:49:08.074Z,4.55
2016-11-07T02:50:07.615Z,4.59
2016-11-07T02:51:07.354Z,4.63
2016-11-07T02:52:07.988Z,4.62
2016-11-07T02:53:07.264Z,4.58
2016-11-07T02:54:08.088Z,4.49
2016-11-07T02:55:07.814Z,4.32
2016-11-07T02:56:07.482Z,4.38
2016-11-07T02:57:08.159Z,4.47
2016-11-07T02:58:07.955Z,4.43
2016-11-07T02:59:07.568Z,4.41
2016-11-07T03:00:07.378Z,4.42
2016-11-07T03:01:08.138Z,4.42
2016-11-07T03:02:07.634Z,4.28
2016-11-07T03:03:07.890Z,4.28
2016-11-07T03:04:07.651Z,4.31
2016-11-07T03:05:08.189Z,4.27
2016-11-07T03:06:07.887Z,4.31
2016-11-07T03:07:07.638Z,4.31
2016-11-07T03:08:07.411Z,4.34
2016-11-07T03:09:08.077Z,4.30
2016-11-07T03:10:07.738Z,4.27
2016-11-07T03:11:08.127Z,4.20
2016-11-07T03:12:07.713Z,4.18
2016-11-07T03:13:07.414Z,4.14
2016-11-07T03:14:07.393Z,4.21
2016-11-07T03:15:07.387Z,4.19
2016-11-07T03:16:08.214Z,4.19
2016-11-07T03:17:07.956Z,4.24
2016-11-07T03:18:07.479Z,4.27
2016-11-07T03:19:08.188Z,4.32
2016-11-07T03:20:07.838Z,4.31
2016-11-07T03:21:07.353Z,4.35
2016-11-07T03:22:08.166Z,4.33
2016-11-07T03:23:07.286Z,4.37
2016-11-07T03:24:07.783Z,4.32
2016-11-07T03:25:07.387Z,4.31
2016-11-07T03:26:08.035Z,4.28
2016-11-07T03:27:07.640Z,4.29
2016-11-07T03:28:07.254Z,4.29
2016-11-07T03:29:08.022Z,4.30
2016-11-07T03:30:07.909Z,4.33
2016-11-07T03:31:07.488Z,4.30
2016-11-07T03:32:08.121Z,4.28
2016-11-07T03:33:07.820Z,4.28
2016-11-07T03:34:07.405Z,4.28
2016-11-07T03:35:08.404Z,4.33
2016-11-07T03:36:08.136Z,4.38
2016-11-07T03:37:07.708Z,4.40
2016-11-07T03:38:07.231Z,4.45
2016-11-07T03:39:07.826Z,4.38
2016-11-07T03:40:07.380Z,4.34
2016-11-07T03:41:07.956Z,4.33
2016-11-07T03:42:07.622Z,4.35
2016-11-07T03:43:07.177Z,4.37
2016-11-07T03:44:07.856Z,4.41
2016-11-07T03:45:07.456Z,4.40
2016-11-07T03:46:08.139Z,4.39
2016-11-07T03:47:07.734Z,4.37
2016-11-07T03:48:07.248Z,4.40
2016-11-07T03:49:07.835Z,4.43
2016-11-07T03:50:07.363Z,4.34
2016-11-07T03:51:07.997Z,4.29
2016-11-07T03:52:07.626Z,4.23
2016-11-07T03:53:07.216Z,4.24
2016-11-07T03:54:07.799Z,4.23
2016-11-07T03:55:07.614Z,4.21
2016-11-07T03:56:07.239Z,4.32
2016-11-07T03:57:07.922Z,4.36
2016-11-07T03:58:07.476Z,4.34
2016-11-07T03:59:07.961Z,4.38
2016-11-07T04:00:07.550Z,4.38
2016-11-07T04:01:08.184Z,4.31
2016-11-07T04:02:07.877Z,4.29
2016-11-07T04:03:07.524Z,4.30
2016-11-07T04:04:08.158Z,4.23
2016-11-07T04:05:07.816Z,4.17
2016-11-07T04:06:07.386Z,4.11
2016-11-07T04:07:07.961Z,4.16
2016-11-07T04:08:08.528Z,4.23
2016-11-07T04:09:07.208Z,4.24
2016-11-07T04:10:08.687Z,4.21
2016-11-07T04:11:07.319Z,4.21
2016-11-07T04:12:07.829Z,4.25
2016-11-07T04:13:07.731Z,4.28
2016-11-07T04:14:07.396Z,4.28
2016-11-07T04:15:07.967Z,4.28
2016-11-07T04:16:07.612Z,4.26
2016-11-07T04:17:07.299Z,4.29
2016-11-07T04:18:07.970Z,4.28
2016-11-07T04:19:07.447Z,4.28
2016-11-07T04:20:08.356Z,4.22
2016-11-07T04:21:08.041Z,4.24
2016-11-07T04:22:07.582Z,4.21
2016-11-07T04:23:07.059Z,4.27
2016-11-07T04:24:07.895Z,4.22
2016-11-07T04:25:07.417Z,4.21
2016-11-07T04:26:07.957Z,4.23
2016-11-07T04:27:07.859Z,4.27
2016-11-07T04:28:07.434Z,4.29
2016-11-07T04:29:08.027Z,4.34
2016-11-07T04:30:07.534Z,4.34
2016-11-07T04:31:08.105Z,4.33
2016-11-07T04:32:07.629Z,4.32
2016-11-07T04:33:07.521Z,4.37
2016-11-07T04:34:08.091Z,4.31
2016-11-07T04:35:07.728Z,4.29
2016-11-07T04:36:07.215Z,4.20
2016-11-07T04:37:07.733Z,4.13
2016-11-07T04:38:07.346Z,4.00
2016-11-07T04:39:07.924Z,4.00
2016-11-07T04:40:07.573Z,3.98
2016-11-07T04:41:08.167Z,3.97
2016-11-07T04:42:07.820Z,4.06
2016-11-07T04:43:07.352Z,4.11
2016-11-07T04:44:07.947Z,4.15
2016-11-07T04:45:07.590Z,4.20
2016-11-07T04:46:07.190Z,4.21
2016-11-07T04:47:07.849Z,4.23
2016-11-07T04:48:07.406Z,4.21
2016-11-07T04:49:07.937Z,4.17
2016-11-07T04:50:07.857Z,4.22
2016-11-07T04:51:07.505Z,4.21
2016-11-07T04:52:08.280Z,4.28
2016-11-07T04:53:08.049Z,4.28
2016-11-07T04:54:07.738Z,4.27
2016-11-07T04:55:07.494Z,4.28
2016-11-07T04:56:08.203Z,4.28
2016-11-07T04:57:07.826Z,4.22
2016-11-07T04:58:07.407Z,4.27
2016-11-07T04:59:07.528Z,4.25
2016-11-07T05:00:08.100Z,4.22
2016-11-07T05:01:07.597Z,4.25
2016-11-07T05:02:07.185Z,4.27
2016-11-07T05:03:07.807Z,4.22
2016-11-07T05:04:07.658Z,4.23
2016-11-07T05:05:07.560Z,4.24
2016-11-07T05:06:08.203Z,4.28
2016-11-07T05:07:07.915Z,4.29
2016-11-07T05:08:07.581Z,4.23
2016-11-07T05:09:07.931Z,4.22
2016-11-07T05:10:07.433Z,4.22
2016-11-07T05:11:08.066Z,4.29
2016-11-07T05:12:07.620Z,4.31
2016-11-07T05:13:07.179Z,4.33
2016-11-07T05:14:07.731Z,4.36
2016-11-07T05:15:07.423Z,4.35
2016-11-07T05:16:08.003Z,4.38
2016-11-07T05:17:07.708Z,4.37
2016-11-07T05:18:07.276Z,4.38
2016-11-07T05:19:07.938Z,4.36
2016-11-07T05:20:08.035Z,4.32
2016-11-07T05:21:07.516Z,4.30
2016-11-07T05:22:07.388Z,4.21
2016-11-07T05:23:08.194Z,4.17
2016-11-07T05:24:07.825Z,4.05
2016-11-07T05:25:10.027Z,4.08
2016-11-07T05:26:08.006Z,4.11
2016-11-07T05:27:07.607Z,4.17
2016-11-07T05:28:07.227Z,4.12
2016-11-07T05:29:07.886Z,4.03
2016-11-07T05:30:07.465Z,3.92
2016-11-07T05:31:07.940Z,3.85
2016-11-07T05:32:07.982Z,3.87
2016-11-07T05:33:07.670Z,3.90
2016-11-07T05:34:07.489Z,3.88
2016-11-07T05:35:07.181Z,3.92
2016-11-07T05:36:07.822Z,4.00
2016-11-07T05:37:07.425Z,4.09
2016-11-07T05:38:07.931Z,4.16
2016-11-07T05:39:07.906Z,4.12
2016-11-07T05:40:07.519Z,4.11
2016-11-07T05:41:08.017Z,4.06
2016-11-07T05:42:07.218Z,4.12
2016-11-07T05:43:07.715Z,4.25
2016-11-07T05:44:07.453Z,4.27
2016-11-07T05:45:08.059Z,4.29
2016-11-07T05:46:07.662Z,4.20
2016-11-07T05:47:09.591Z,4.16
2016-11-07T05:48:07.976Z,4.19
2016-11-07T05:49:07.517Z,4.18
2016-11-07T05:50:07.252Z,4.18
2016-11-07T05:51:07.916Z,4.12
2016-11-07T05:52:07.458Z,4.09
2016-11-07T05:53:08.157Z,4.05
2016-11-07T05:54:07.676Z,3.99
2016-11-07T05:55:07.260Z,3.99
2016-11-07T05:56:07.846Z,3.84
2016-11-07T05:57:07.469Z,3.71
2016-11-07T05:58:08.257Z,3.75
2016-11-07T05:59:07.918Z,3.85
2016-11-07T06:00:07.531Z,3.90
2016-11-07T06:01:08.295Z,3.94
2016-11-07T06:02:07.990Z,3.95
2016-11-07T06:03:07.690Z,3.92
2016-11-07T06:04:07.223Z,3.72
2016-11-07T06:05:07.879Z,3.62
2016-11-07T06:06:07.490Z,3.72
2016-11-07T06:07:08.218Z,3.84
2016-11-07T06:08:07.849Z,3.85
2016-11-07T06:09:07.819Z,3.79
2016-11-07T06:10:07.343Z,3.78
2016-11-07T06:11:07.175Z,3.72
2016-11-07T06:12:07.869Z,3.61
2016-11-07T06:13:07.574Z,3.75
2016-11-07T06:14:07.199Z,3.64
2016-11-07T06:15:07.870Z,3.70
2016-11-07T06:16:07.680Z,3.66
2016-11-07T06:17:07.457Z,3.58
2016-11-07T06:18:07.166Z,3.49
2016-11-07T06:19:07.781Z,3.63
2016-11-07T06:20:07.532Z,3.87
2016-11-07T06:21:07.248Z,4.02
2016-11-07T06:22:07.882Z,4.07
2016-11-07T06:23:08.798Z,4.12
2016-11-07T06:24:07.284Z,4.15
2016-11-07T06:25:07.933Z,4.16
2016-11-07T06:26:07.613Z,4.07
2016-11-07T06:27:07.399Z,4.08
2016-11-07T06:28:09.054Z,4.12
2016-11-07T06:29:07.628Z,4.24
2016-11-07T06:30:07.303Z,4.30
2016-11-07T06:31:08.012Z,4.34
2016-11-07T06:32:07.719Z,4.29
2016-11-07T06:33:07.339Z,4.35
2016-11-07T06:34:08.015Z,4.31
2016-11-07T06:35:07.677Z,4.29
2016-11-07T06:36:07.367Z,4.33
2016-11-07T06:37:08.034Z,4.48
2016-11-07T06:38:07.689Z,4.41
2016-11-07T06:39:07.451Z,4.42
2016-11-07T06:40:07.066Z,4.41
2016-11-07T06:41:07.758Z,4.44
2016-11-07T06:42:07.449Z,4.34
2016-11-07T06:43:07.097Z,4.46
2016-11-07T06:44:07.791Z,4.32
2016-11-07T06:45:07.412Z,4.39
2016-11-07T06:46:07.182Z,4.55
2016-11-07T06:47:07.864Z,4.63
2016-11-07T06:48:07.509Z,4.74
2016-11-07T06:49:07.177Z,4.86
2016-11-07T06:50:07.809Z,4.83
2016-11-07T06:51:07.517Z,4.91
2016-11-07T06:52:07.211Z,4.97
2016-11-07T06:53:07.884Z,4.99
2016-11-07T06:54:07.608Z,5.03
2016-11-07T06:55:07.216Z,5.15
2016-11-07T06:56:07.888Z,5.20
2016-11-07T06:57:07.568Z,5.15
2016-11-07T06:58:07.260Z,5.17
2016-11-07T06:59:08.007Z,5.15
2016-11-07T07:00:07.669Z,5.14
2016-11-07T07:01:07.315Z,5.14
2016-11-07T07:02:08.043Z,5.15
2016-11-07T07:03:07.633Z,5.11
2016-11-07T07:04:07.328Z,5.06
2016-11-07T07:05:07.992Z,5.09
2016-11-07T07:06:07.685Z,5.01
2016-11-07T07:07:07.392Z,5.02
2016-11-07T07:08:08.009Z,5.03
2016-11-07T07:09:07.760Z,5.01
2016-11-07T07:10:07.432Z,4.97
2016-11-07T07:11:07.092Z,5.05
2016-11-07T07:12:07.759Z,5.09
2016-11-07T07:13:07.484Z,5.04
2016-11-07T07:14:07.193Z,5.12
2016-11-07T07:15:07.830Z,5.13
2016-11-07T07:16:07.576Z,5.11
2016-11-07T07:17:07.339Z,4.95
2016-11-07T07:18:07.044Z,4.74
2016-11-07T07:19:07.738Z,4.75
2016-11-07T07:20:07.408Z,4.80
2016-11-07T07:21:07.057Z,4.79
2016-11-07T07:22:08.822Z,4.79
2016-11-07T07:23:07.433Z,4.86
2016-11-07T07:24:07.114Z,4.81
2016-11-07T07:25:07.784Z,4.84
2016-11-07T07:26:07.422Z,4.82
2016-11-07T07:27:07.124Z,4.81
2016-11-07T07:28:07.767Z,4.74
2016-11-07T07:29:07.466Z,4.68
2016-11-07T07:30:07.130Z,4.65
2016-11-07T07:31:07.822Z,4.68
2016-11-07T07:32:07.566Z,4.68
2016-11-07T07:33:07.220Z,4.63
2016-11-07T07:34:07.879Z,4.52
2016-11-07T07:35:07.526Z,4.50
2016-11-07T07:36:07.212Z,4.41
2016-11-07T07:37:07.866Z,4.39
2016-11-07T07:38:07.542Z,4.41
2016-11-07T07:39:07.268Z,4.50
2016-11-07T07:40:08.020Z,4.51
2016-11-07T07:41:07.607Z,4.54
2016-11-07T07:42:07.265Z,4.54
2016-11-07T07:43:07.928Z,4.47
2016-11-07T07:44:07.682Z,4.26
2016-11-07T07:45:07.309Z,4.31
2016-11-07T07:46:07.943Z,4.33
2016-11-07T07:47:07.678Z,4.26
2016-11-07T07:48:07.371Z,4.28
2016-11-07T07:49:08.026Z,4.37
2016-11-07T07:50:07.652Z,4.36
2016-11-07T07:51:07.315Z,4.37
2016-11-07T07:52:07.989Z,4.41
2016-11-07T07:53:07.691Z,4.36
2016-11-07T07:54:07.382Z,4.37
2016-11-07T07:55:08.010Z,4.25
2016-11-07T07:56:07.701Z,4.20
2016-11-07T07:57:07.380Z,4.27
2016-11-07T07:58:07.081Z,4.23
2016-11-07T07:59:07.756Z,4.22
2016-11-07T08:00:07.449Z,4.22
2016-11-07T08:01:07.102Z,4.23
2016-11-07T08:02:07.837Z,4.35
2016-11-07T08:03:07.469Z,4.34
2016-11-07T08:04:07.158Z,4.40
2016-11-07T08:05:07.313Z,4.42
2016-11-07T08:06:08.019Z,4.38
2016-11-07T08:07:07.716Z,4.30
2016-11-07T08:08:07.374Z,4.34
2016-11-07T08:09:07.054Z,4.42
2016-11-07T08:10:07.776Z,4.45
2016-11-07T08:11:07.401Z,4.24
2016-11-07T08:12:07.071Z,4.32
2016-11-07T08:13:07.756Z,4.31
2016-11-07T08:14:07.522Z,4.32
2016-11-07T08:15:07.121Z,4.41
2016-11-07T08:16:07.831Z,4.34
2016-11-07T08:17:07.662Z,4.28
2016-11-07T08:18:07.350Z,4.20
2016-11-07T08:19:07.204Z,4.26
2016-11-07T08:20:07.448Z,4.30
2016-11-07T08:21:07.141Z,4.35
2016-11-07T08:22:07.779Z,4.40
2016-11-07T08:23:07.514Z,4.42
2016-11-07T08:24:07.256Z,4.35
2016-11-07T08:25:07.895Z,4.18
2016-11-07T08:26:07.636Z,4.16
2016-11-07T08:27:07.259Z,4.11
2016-11-07T08:28:07.955Z,4.05
2016-11-07T08:29:07.686Z,4.01
2016-11-07T08:30:07.326Z,4.13
2016-11-07T08:31:08.001Z,4.16
2016-11-07T08:32:07.728Z,4.20
2016-11-07T08:33:07.402Z,4.22
2016-11-07T08:34:08.162Z,4.23
2016-11-07T08:35:07.520Z,4.28
2016-11-07T08:36:07.196Z,4.08
2016-11-07T08:37:07.891Z,4.03
2016-11-07T08:38:07.552Z,4.01
2016-11-07T08:39:07.226Z,3.84
2016-11-07T08:40:07.957Z,3.94
2016-11-07T08:41:07.598Z,3.94
2016-11-07T08:42:07.305Z,3.93
2016-11-07T08:43:07.919Z,3.99
2016-11-07T08:44:07.588Z,3.91
2016-11-07T08:45:07.359Z,3.84
2016-11-07T08:46:08.009Z,3.98
2016-11-07T08:47:07.723Z,4.12
2016-11-07T08:48:07.379Z,4.00
2016-11-07T08:49:07.235Z,4.01
2016-11-07T08:50:07.755Z,3.95
2016-11-07T08:51:07.480Z,3.87
2016-11-07T08:52:07.179Z,3.86
2016-11-07T08:53:07.886Z,3.70
2016-11-07T08:54:07.588Z,3.72
2016-11-07T08:55:07.300Z,3.77
2016-11-07T08:56:07.972Z,3.83
2016-11-07T08:57:07.627Z,3.98
2016-11-07T08:58:07.280Z,4.13
2016-11-07T08:59:07.981Z,4.20
2016-11-07T09:00:07.728Z,4.30
2016-11-07T09:01:07.335Z,4.28
2016-11-07T09:02:08.050Z,4.31
2016-11-07T09:03:07.728Z,4.32
2016-11-07T09:04:07.492Z,4.24
2016-11-07T09:05:07.837Z,4.31
2016-11-07T09:06:07.435Z,4.36
2016-11-07T09:07:07.135Z,4.37
2016-11-07T09:08:07.809Z,4.46
2016-11-07T09:09:07.459Z,4.46
2016-11-07T09:10:07.250Z,4.38
2016-11-07T09:11:07.841Z,4.24
2016-11-07T09:12:07.584Z,4.16
2016-11-07T09:13:07.237Z,4.10
2016-11-07T09:14:07.918Z,4.06
2016-11-07T09:15:07.622Z,3.92
2016-11-07T09:16:07.262Z,3.95
2016-11-07T09:17:08.020Z,3.86
2016-11-07T09:18:07.743Z,3.82
2016-11-07T09:19:07.393Z,3.92
2016-11-07T09:20:07.648Z,3.96
2016-11-07T09:21:07.307Z,4.02
2016-11-07T09:22:07.914Z,3.94
2016-11-07T09:23:07.584Z,3.92
2016-11-07T09:24:07.274Z,4.11
2016-11-07T09:25:08.006Z,4.24
2016-11-07T09:26:07.649Z,4.22
2016-11-07T09:27:07.347Z,4.34
2016-11-07T09:28:07.988Z,4.15
2016-11-07T09:29:07.641Z,4.27
2016-11-07T09:30:07.334Z,4.42
2016-11-07T09:31:07.975Z,4.58
2016-11-07T09:32:07.693Z,4.52
2016-11-07T09:33:07.305Z,4.65
2016-11-07T09:34:07.948Z,4.65
2016-11-07T09:35:07.686Z,4.77
2016-11-07T09:36:07.390Z,4.76
2016-11-07T09:37:08.029Z,4.80
2016-11-07T09:38:07.744Z,4.91
2016-11-07T09:39:07.399Z,4.99
2016-11-07T09:40:07.114Z,5.06
2016-11-07T09:41:07.752Z,5.07
2016-11-07T09:42:07.456Z,4.95
2016-11-07T09:43:07.139Z,4.90
2016-11-07T09:44:07.824Z,5.01
2016-11-07T09:45:07.535Z,5.05
2016-11-07T09:46:07.138Z,5.03
2016-11-07T09:47:07.874Z,5.13
2016-11-07T09:48:07.610Z,5.13
2016-11-07T09:49:07.629Z,5.11
2016-11-07T09:50:07.307Z,5.05
2016-11-07T09:51:07.923Z,5.00
2016-11-07T09:52:07.580Z,5.01
2016-11-07T09:53:07.279Z,4.75
2016-11-07T09:54:07.945Z,4.81
2016-11-07T09:55:07.668Z,4.65
2016-11-07T09:56:07.499Z,4.67
2016-11-07T09:57:07.036Z,4.69
2016-11-07T09:58:08.014Z,4.67
2016-11-07T09:59:07.410Z,4.71
2016-11-07T10:00:07.119Z,4.69
2016-11-07T10:01:07.731Z,4.61
2016-11-07T10:02:07.476Z,4.44
2016-11-07T10:03:07.072Z,4.52
2016-11-07T10:04:07.813Z,4.61
2016-11-07T10:05:07.788Z,4.69
2016-11-07T10:06:07.488Z,4.65
2016-11-07T10:07:07.087Z,4.39
2016-11-07T10:08:07.766Z,4.48
2016-11-07T10:09:07.458Z,4.49
2016-11-07T10:10:07.177Z,4.36
2016-11-07T10:11:07.832Z,4.41
2016-11-07T10:12:07.457Z,4.40
2016-11-07T10:13:07.138Z,4.31
2016-11-07T10:14:07.822Z,4.24
2016-11-07T10:15:07.544Z,4.26
2016-11-07T10:16:07.191Z,4.27
2016-11-07T10:17:07.964Z,4.30
2016-11-07T10:18:07.690Z,4.32
2016-11-07T10:19:07.609Z,4.25
2016-11-07T10:20:07.229Z,4.27
2016-11-07T10:21:07.876Z,4.15
2016-11-07T10:22:07.533Z,4.21
2016-11-07T10:23:07.258Z,4.29
2016-11-07T10:24:07.851Z,4.46
2016-11-07T10:25:07.586Z,4.57
2016-11-07T10:26:07.244Z,4.66
2016-11-07T10:27:07.957Z,4.64
2016-11-07T10:28:07.581Z,4.63
2016-11-07T10:29:07.282Z,4.75
2016-11-07T10:30:07.965Z,4.75
2016-11-07T10:31:07.558Z,4.76
2016-11-07T10:32:07.272Z,4.84
2016-11-07T10:33:07.928Z,4.93
2016-11-07T10:34:07.872Z,4.89
2016-11-07T10:35:07.533Z,4.89
2016-11-07T10:36:07.169Z,4.86
2016-11-07T10:37:07.886Z,4.84
2016-11-07T10:38:07.503Z,4.70
2016-11-07T10:39:07.276Z,4.78
2016-11-07T10:40:07.929Z,4.85
2016-11-07T10:41:08.095Z,4.95
2016-11-07T10:42:07.309Z,5.04
2016-11-07T10:43:07.964Z,5.10
2016-11-07T10:44:07.720Z,5.12
2016-11-07T10:45:07.448Z,5.25
2016-11-07T10:46:07.100Z,5.33
2016-11-07T10:47:07.858Z,5.27
2016-11-07T10:48:07.508Z,5.30
2016-11-07T10:49:07.181Z,5.25
2016-11-07T10:50:07.944Z,5.36
2016-11-07T10:51:07.603Z,5.46
2016-11-07T10:52:07.296Z,5.54
2016-11-07T10:53:07.965Z,5.64
2016-11-07T10:54:07.638Z,5.62
2016-11-07T10:55:07.417Z,5.66
2016-11-07T10:56:08.037Z,5.59
2016-11-07T10:57:07.668Z,5.33
2016-11-07T10:58:07.377Z,5.42
2016-11-07T10:59:07.104Z,5.35
2016-11-07T11:00:07.811Z,5.43
2016-11-07T11:01:07.414Z,5.58
2016-11-07T11:02:07.126Z,5.60
2016-11-07T11:03:07.779Z,5.74
2016-11-07T11:04:07.655Z,5.85
2016-11-07T11:05:07.279Z,5.89
2016-11-07T11:06:07.898Z,5.89
2016-11-07T11:07:07.601Z,5.84
2016-11-07T11:08:07.248Z,5.91
2016-11-07T11:09:07.955Z,5.98
2016-11-07T11:10:07.650Z,6.09
2016-11-07T11:11:07.303Z,6.22
2016-11-07T11:12:08.003Z,6.18
2016-11-07T11:13:07.714Z,6.13
2016-11-07T11:14:07.397Z,6.08
2016-11-07T11:15:07.127Z,5.95
2016-11-07T11:16:07.797Z,5.83
2016-11-07T11:17:07.624Z,5.72
2016-11-07T11:18:07.328Z,5.54
2016-11-07T11:19:08.313Z,5.51
2016-11-07T11:20:08.027Z,5.59
2016-11-07T11:21:07.671Z,5.59
2016-11-07T11:22:07.377Z,5.55
2016-11-07T11:23:07.112Z,5.60
2016-11-07T11:24:07.764Z,5.60
2016-11-07T11:25:07.516Z,5.64
2016-11-07T11:26:07.181Z,5.67
2016-11-07T11:27:07.834Z,5.64
2016-11-07T11:28:07.535Z,5.61
2016-11-07T11:29:07.208Z,5.62
2016-11-07T11:30:07.936Z,5.64
2016-11-07T11:31:07.639Z,5.75
2016-11-07T11:32:07.353Z,5.71
2016-11-07T11:33:08.043Z,5.63
2016-11-07T11:34:07.912Z,5.65
2016-11-07T11:35:07.477Z,5.56
2016-11-07T11:36:07.118Z,5.54
2016-11-07T11:37:07.804Z,5.72
2016-11-07T11:38:07.531Z,5.68
2016-11-07T11:39:07.219Z,5.64
2016-11-07T11:40:07.867Z,5.64
2016-11-07T11:41:07.529Z,5.67
2016-11-07T11:42:07.173Z,5.82
2016-11-07T11:43:07.868Z,5.76
2016-11-07T11:44:07.512Z,5.92
2016-11-07T11:45:07.257Z,6.00
2016-11-07T11:46:07.860Z,6.07
2016-11-07T11:47:07.574Z,6.10
2016-11-07T11:48:07.248Z,5.99
2016-11-07T11:49:08.150Z,5.99
2016-11-07T11:50:07.722Z,5.96
2016-11-07T11:51:07.332Z,5.94
2016-11-07T11:52:07.048Z,5.90
2016-11-07T11:53:07.702Z,5.81
2016-11-07T11:54:07.429Z,5.61
2016-11-07T11:55:07.137Z,5.60
2016-11-07T11:56:07.758Z,5.64
2016-11-07T11:57:07.438Z,5.69
2016-11-07T11:58:07.152Z,5.69
2016-11-07T11:59:07.872Z,5.86
2016-11-07T12:00:07.547Z,6.08
2016-11-07T12:01:08.261Z,6.15
2016-11-07T12:02:07.958Z,6.26
2016-11-07T12:03:07.468Z,6.23
2016-11-07T12:04:07.489Z,6.26
2016-11-07T12:05:07.212Z,6.34
2016-11-07T12:06:07.843Z,6.41
2016-11-07T12:07:07.562Z,6.42
2016-11-07T12:08:07.222Z,6.27
2016-11-07T12:09:07.929Z,6.25
2016-11-07T12:10:07.620Z,6.18
2016-11-07T12:11:07.221Z,6.05
2016-11-07T12:12:07.919Z,6.08
2016-11-07T12:13:07.591Z,5.89
2016-11-07T12:14:07.241Z,5.89
2016-11-07T12:15:07.955Z,5.84
2016-11-07T12:16:07.580Z,5.75
2016-11-07T12:17:07.393Z,5.79
2016-11-07T12:18:07.082Z,5.81
2016-11-07T12:19:07.783Z,5.89
2016-11-07T12:20:07.618Z,5.90
2016-11-07T12:21:07.247Z,5.89
2016-11-07T12:22:07.925Z,5.95
2016-11-07T12:23:07.609Z,5.81
2016-11-07T12:24:07.271Z,5.86
2016-11-07T12:25:07.960Z,5.88
2016-11-07T12:26:07.636Z,5.98
2016-11-07T12:27:07.290Z,6.02
2016-11-07T12:28:07.998Z,6.04
2016-11-07T12:29:07.627Z,6.05
2016-11-07T12:30:07.358Z,6.14
2016-11-07T12:31:08.018Z,6.20
2016-11-07T12:32:07.708Z,6.25
2016-11-07T12:33:07.332Z,6.41
2016-11-07T12:34:07.994Z,6.40
2016-11-07T12:35:07.824Z,6.38
2016-11-07T12:36:07.436Z,6.39
2016-11-07T12:37:07.140Z,6.36
2016-11-07T12:38:07.768Z,6.18
2016-11-07T12:39:07.427Z,6.14
2016-11-07T12:40:07.052Z,6.08
2016-11-07T12:41:07.745Z,6.08
2016-11-07T12:42:07.403Z,6.08
2016-11-07T12:43:07.093Z,6.07
2016-11-07T12:44:07.750Z,6.06
2016-11-07T12:45:07.490Z,6.05
2016-11-07T12:46:07.122Z,6.01
2016-11-07T12:47:07.863Z,5.96
2016-11-07T12:48:07.484Z,5.89
2016-11-07T12:49:07.214Z,5.85
2016-11-07T12:50:07.952Z,5.86
2016-11-07T12:51:07.599Z,5.81
2016-11-07T12:52:07.290Z,5.79
2016-11-07T12:53:07.951Z,5.66
2016-11-07T12:54:07.622Z,5.61
2016-11-07T12:55:07.335Z,5.63
2016-11-07T12:56:07.998Z,5.67
2016-11-07T12:57:07.692Z,5.60
2016-11-07T12:58:07.355Z,5.54
2016-11-07T12:59:07.058Z,5.66
2016-11-07T13:00:07.791Z,5.73
2016-11-07T13:01:07.442Z,5.79
2016-11-07T13:02:07.116Z,5.80
2016-11-07T13:03:07.740Z,5.95
2016-11-07T13:04:07.597Z,6.06
2016-11-07T13:05:07.159Z,6.18
2016-11-07T13:06:07.831Z,6.13
2016-11-07T13:07:07.564Z,6.06
2016-11-07T13:08:07.203Z,6.12
2016-11-07T13:09:07.880Z,6.16
2016-11-07T13:10:07.546Z,6.08
2016-11-07T13:11:07.236Z,6.09
2016-11-07T13:12:07.905Z,6.18
2016-11-07T13:13:07.609Z,6.23
2016-11-07T13:14:07.252Z,6.28
2016-11-07T13:15:07.946Z,6.35
2016-11-07T13:16:07.582Z,6.47
2016-11-07T13:17:07.373Z,6.40
2016-11-07T13:18:07.097Z,6.40